Flight Track Log - Related Links

Times and Time Zones

All times are in EDT time to prevent confusion due to time zone crossing. See the CHQ4989 flight status page for this flight to view local times or setup timezone preferences in your user account.

Time Position Orientation Groundspeed Altitude Reporting Facility
EDT Latitude Longitude Course Direction KTS MPH feet Rate Location/Type
Mon 08:49:49 AM 41.3906 -81.8808 242° Southwest 158 182 2,000  Level Cleveland Center
Mon 08:50:13 AM 41.3819 -81.9044 244° Southwest 173 199 3,000 2,057 Climbing Cleveland Center
Mon 08:50:24 AM 41.3808 -81.9094 254° West 170 196 3,200 2,164 Climbing Cleveland Center
Mon 08:51:14 AM 41.3628 -81.9739 250° West 205 236 5,200 2,226 Climbing Cleveland Center
Mon 08:51:26 AM 41.3603 -81.9808 244° Southwest 205 236 5,500 2,137 Climbing Cleveland Center
Mon 08:52:00 AM 41.2783 -82.2297 250° West  Level FlightAware Approximate
Mon 08:52:27 AM 41.3336 -82.0658 247° West 243 280 7,800  Level Cleveland Center
Mon 08:53:00 AM 41.2421 -82.3596 248° West  Level FlightAware Approximate
Mon 08:53:29 AM 41.3036 -82.1600 247° West 270 311 10,600  Level Cleveland Center
Mon 08:54:00 AM 41.2036 -82.4881 248° West  Level FlightAware Approximate
Mon 08:54:31 AM 41.2722 -82.2742 250° West 279 321 13,000  Level Cleveland Center
Mon 08:55:00 AM 41.1577 -82.5974 242° Southwest  Level FlightAware Approximate
Mon 08:55:33 AM 41.2436 -82.3794 250° West 294 338 15,100  Level Cleveland Center
Mon 08:56:35 AM 41.2128 -82.4914 250° West 314 361 16,700 1,403 Climbing Cleveland Center
Mon 08:57:37 AM 41.1606 -82.5967 237° Southwest 338 389 18,000 1,403 Climbing Cleveland Center
Mon 08:58:39 AM 41.1003 -82.6969 231° Southwest 341 392 19,600 1,548 Climbing Cleveland Center
Mon 08:59:41 AM 41.0389 -82.8008 232° Southwest 352 405 21,200 1,161 Climbing Cleveland Center
Mon 09:00:43 AM 40.9756 -82.9083 232° Southwest 365 420 22,000 390 Climbing Cleveland Center
Mon 09:01:44 AM 40.9058 -83.0250 232° Southwest 398 458 22,000  Level Cleveland Center
Mon 09:02:46 AM 40.8256 -83.1600 232° Southwest 406 467 22,000  Level Cleveland Center
Mon 09:03:49 AM 40.7572 -83.2736 232° Southwest 400 460 22,000  Level Cleveland Center
Mon 09:04:51 AM 40.6872 -83.3839 230° Southwest 396 456 22,000  Level Cleveland Center
Mon 09:05:53 AM 40.5953 -83.4647 214° Southwest 399 459 22,000  Level Cleveland Center
Mon 09:06:55 AM 40.5006 -83.5408 211° Southwest 399 459 22,000  Level Cleveland Center
Mon 09:07:56 AM 40.3875 -83.6300 211° Southwest 399 459 22,000  Level Cleveland Center
Mon 09:08:58 AM 40.2933 -83.7067 212° Southwest 399 459 22,000  Level Cleveland Center
Mon 09:10:00 AM 40.1986 -83.7808 211° Southwest 399 459 22,000  Level Cleveland Center
Mon 09:11:02 AM 40.1044 -83.8561 211° Southwest 400 460 22,000  Level Cleveland Center
Mon 09:12:04 AM 40.0103 -83.9311 211° Southwest 400 460 22,000  Level Cleveland Center
Mon 09:13:09 AM 39.8956 -84.0219 211° Southwest 402 463 22,000  Level Indianapolis Center
Mon 09:14:11 AM 39.7969 -84.1000 211° Southwest 412 474 22,000  Level Indianapolis Center
Mon 09:15:13 AM 39.6969 -84.1781 211° Southwest 417 480 22,000  Level Indianapolis Center
Mon 09:16:14 AM 39.5950 -84.2578 211° Southwest 423 487 22,000 -537 Level Indianapolis Center
Mon 09:17:16 AM 39.4739 -84.3503 211° Southwest 424 488 20,900 -1,016 Descending Indianapolis Center
Mon 09:18:18 AM 39.3783 -84.4242 211° Southwest 411 473 19,900 -968 Descending Indianapolis Center
Mon 09:20:22 AM 39.1936 -84.5681 211° Southwest 391 450 17,900 -871 Descending Indianapolis Center
Mon 09:21:24 AM 39.1025 -84.6372 211° Southwest 386 444 17,200 -774 Descending Indianapolis Center
Mon 09:22:26 AM 39.0131 -84.7061 211° Southwest 382 440 16,300 -1,016 Descending Indianapolis Center
Mon 09:23:28 AM 38.9158 -84.8011 217° Southwest 371 427 15,100 -1,016 Descending Indianapolis Center
Mon 09:24:30 AM 38.8403 -84.8742 217° Southwest 366 421 14,200 -532 Descending Indianapolis Center
Mon 09:25:32 AM 38.7614 -84.9508 217° Southwest 363 418 14,000 -677 Descending Indianapolis Center
Mon 09:26:34 AM 38.6867 -85.0233 217° Southwest 344 396 12,800 -1,016 Descending Indianapolis Center
Mon 09:27:36 AM 38.5950 -85.1094 216° Southwest 346 398 11,900 -629 Descending Indianapolis Center
Mon 09:28:38 AM 38.5144 -85.1869 217° Southwest 355 409 11,500 -774 Descending Indianapolis Center
Mon 09:29:40 AM 38.4469 -85.2519 217° Southwest 344 396 10,300 -1,500 Descending Indianapolis Center
Mon 09:30:42 AM 38.3708 -85.3233 216° Southwest 294 338 8,400 -1,694 Descending Indianapolis Center
Mon 09:31:44 AM 38.3125 -85.3817 218° Southwest 273 314 6,800 -1,161 Descending Indianapolis Center
Mon 09:32:46 AM 38.3300 -85.4642 285° West 264 304 6,000 -387 Descending Indianapolis Center
Mon 09:33:48 AM 38.3622 -85.5442 297° West 258 297 6,000 -242 Level Indianapolis Center
Mon 09:34:50 AM 38.3919 -85.6256 295° West 262 302 5,500 -774 Descending Indianapolis Center
Mon 09:35:52 AM 38.3728 -85.7042 253° West 254 292 4,400 -1,016 Descending Indianapolis Center
Mon 09:36:54 AM 38.3281 -85.7533 221° Southwest 222 255 3,400 -1,065 Descending Indianapolis Center
Mon 09:37:56 AM 38.2658 -85.7578 183° South 208 239 2,200 -629 Descending Indianapolis Center
Mon 09:38:58 AM 38.2164 -85.7433 167° South 204 235 2,100 -97 Descending Indianapolis Center

Login

Don't have an account? Register now (free) for customized features, flight alerts, and more!